Terminal Aerodrome Forecast
Issued by NWS Binghamton, NY

Home | Current Version | Previous Version | Text Only | Print | Product List | Glossary On
Versions: 1 2 3 4 5 6 7 8 9 10 11 12 13 14 15 16 17 18 19 20 21 22 23 24 25 26
000
FTUS41 KBGM 281925 AAA
TAFAVP
TAF AMD
KAVP 281925Z 2819/2918 03009KT 6SM -SHRA BR SCT013 OVC040
      TEMPO 2819/2821 4SM -SHRA BR BKN009
     FM282100 00000KT 5SM -RA BR OVC015
     FM290200 34005KT P6SM OVC013
     FM291000 34009KT P6SM OVC020
     FM291600 33010KT P6SM BKN035=

USA.gov is the U.S. government's official web portal to all federal, state and local government web resources and services.